createdAt,value
2023-12-04T00:01:17.140Z,15.23
2023-12-04T00:03:43.976Z,14.52
2023-12-04T00:06:14.400Z,14.98
2023-12-04T00:08:41.670Z,13.70
2023-12-04T00:11:08.468Z,14.40
2023-12-04T00:13:36.121Z,14.00
2023-12-04T00:16:03.110Z,14.05
2023-12-04T00:18:30.112Z,13.70
2023-12-04T00:20:57.633Z,13.53
2023-12-04T00:23:24.338Z,13.30
2023-12-04T00:25:50.968Z,12.88
2023-12-04T00:28:17.564Z,13.27
2023-12-04T00:30:44.523Z,13.18
2023-12-04T00:33:11.250Z,12.93
2023-12-04T00:35:37.852Z,13.07
2023-12-04T00:38:04.585Z,12.50
2023-12-04T00:40:31.262Z,13.00
2023-12-04T00:42:58.099Z,12.25
2023-12-04T00:45:25.385Z,12.60
2023-12-04T00:47:52.055Z,12.07
2023-12-04T00:50:18.825Z,12.20
2023-12-04T00:52:45.566Z,12.05
2023-12-04T00:55:12.377Z,12.25
2023-12-04T00:57:39.010Z,12.33
2023-12-04T01:00:06.764Z,11.70
2023-12-04T01:02:33.482Z,11.48
2023-12-04T01:05:00.974Z,10.98
2023-12-04T01:07:28.382Z,10.98
2023-12-04T01:09:55.136Z,10.93
2023-12-04T01:12:22.356Z,10.98
2023-12-04T01:14:49.016Z,11.32
2023-12-04T01:17:15.635Z,10.30
2023-12-04T01:19:42.329Z,11.18
2023-12-04T01:22:09.178Z,10.57
2023-12-04T01:24:35.924Z,10.43
2023-12-04T01:27:04.412Z,10.50
2023-12-04T01:29:33.066Z,10.30
2023-12-04T01:31:59.737Z,10.30
2023-12-04T01:34:26.735Z,10.90
2023-12-04T01:36:53.623Z,10.15
2023-12-04T01:39:20.301Z,10.63
2023-12-04T01:41:46.853Z,9.82
2023-12-04T01:44:13.510Z,9.70
2023-12-04T01:46:40.185Z,9.47
2023-12-04T01:49:07.202Z,9.23
2023-12-04T01:51:34.365Z,9.43
2023-12-04T01:54:03.801Z,10.20
2023-12-04T01:56:31.299Z,9.52
2023-12-04T01:58:59.828Z,9.93
2023-12-04T02:01:28.448Z,9.90
2023-12-04T02:03:55.575Z,9.25
2023-12-04T02:06:23.039Z,9.18
2023-12-04T02:08:49.987Z,8.90
2023-12-04T02:11:16.732Z,9.50
2023-12-04T02:13:43.866Z,9.13
2023-12-04T02:16:13.036Z,8.57
2023-12-04T02:18:40.154Z,8.35
2023-12-04T02:21:07.087Z,9.32
2023-12-04T02:23:33.940Z,8.70
2023-12-04T02:26:10.950Z,8.65
2023-12-04T02:28:39.250Z,8.27
2023-12-04T02:31:08.049Z,8.23
2023-12-04T02:33:37.021Z,8.10
2023-12-04T02:36:06.432Z,8.40
2023-12-04T02:38:33.475Z,8.30
2023-12-04T02:41:00.450Z,8.30
2023-12-04T02:43:27.138Z,7.97
2023-12-04T02:45:53.794Z,7.82
2023-12-04T02:48:20.455Z,7.70
2023-12-04T02:50:47.120Z,7.75
2023-12-04T02:53:13.733Z,7.93
2023-12-04T02:55:40.445Z,7.97
2023-12-04T02:58:07.047Z,7.80
2023-12-04T03:00:33.766Z,7.70
2023-12-04T03:03:00.539Z,7.97
2023-12-04T03:05:27.244Z,7.90
2023-12-04T03:07:54.358Z,7.57
2023-12-04T03:10:21.165Z,7.28
2023-12-04T03:12:47.965Z,7.97
2023-12-04T03:15:14.756Z,7.47
2023-12-04T03:17:41.469Z,7.90
2023-12-04T03:20:09.906Z,7.22
2023-12-04T03:22:37.731Z,7.65
2023-12-04T03:25:04.975Z,7.40
2023-12-04T03:27:31.789Z,7.32
2023-12-04T03:29:58.622Z,7.10
2023-12-04T03:32:25.289Z,7.38
2023-12-04T03:34:52.252Z,7.22
2023-12-04T03:37:20.058Z,6.80
2023-12-04T03:39:46.779Z,7.18
2023-12-04T03:42:13.584Z,7.43
2023-12-04T03:44:40.176Z,7.03
2023-12-04T03:47:06.790Z,6.90
2023-12-04T03:49:33.511Z,6.30
2023-12-04T03:52:00.318Z,7.18
2023-12-04T03:54:27.019Z,6.78
2023-12-04T03:56:54.472Z,6.75
2023-12-04T03:59:21.312Z,6.60
2023-12-04T04:01:47.965Z,6.60
2023-12-04T04:04:14.914Z,6.20
2023-12-04T04:06:41.601Z,6.78
2023-12-04T04:09:08.387Z,6.05
2023-12-04T04:11:36.505Z,6.18
2023-12-04T04:14:03.326Z,6.37
2023-12-04T04:16:30.052Z,6.10
2023-12-04T04:18:57.139Z,5.88
2023-12-04T04:21:23.917Z,6.13
2023-12-04T04:23:50.631Z,6.25
2023-12-04T04:26:17.262Z,6.10
2023-12-04T04:28:43.916Z,6.28
2023-12-04T04:31:10.573Z,5.90
2023-12-04T04:33:37.469Z,5.88
2023-12-04T04:36:04.485Z,6.10
2023-12-04T04:38:31.282Z,6.20
2023-12-04T04:40:58.100Z,5.75
2023-12-04T04:43:24.741Z,6.22
2023-12-04T04:45:52.058Z,5.72
2023-12-04T04:48:18.817Z,5.68
2023-12-04T04:50:45.461Z,6.07
2023-12-04T04:53:12.217Z,6.20
2023-12-04T04:55:47.522Z,6.03
2023-12-04T04:58:19.115Z,5.90
2023-12-04T05:00:46.935Z,5.53
2023-12-04T05:03:13.635Z,5.73
2023-12-04T05:05:40.523Z,5.53
2023-12-04T05:08:07.156Z,6.05
2023-12-04T05:10:33.972Z,5.60
2023-12-04T05:13:00.847Z,5.55
2023-12-04T05:15:27.488Z,5.43
2023-12-04T05:17:54.723Z,5.50
2023-12-04T05:20:21.422Z,5.63
2023-12-04T05:22:48.701Z,5.68
2023-12-04T05:25:15.549Z,5.35
2023-12-04T05:27:42.358Z,5.30
2023-12-04T05:30:09.396Z,4.80
2023-12-04T05:32:36.098Z,5.18
2023-12-04T05:35:02.793Z,5.47
2023-12-04T05:37:29.448Z,4.65
2023-12-04T05:39:56.229Z,5.63
2023-12-04T05:42:22.887Z,5.15
2023-12-04T05:44:49.465Z,5.20
2023-12-04T05:47:16.168Z,4.97
2023-12-04T05:49:42.841Z,5.03
2023-12-04T05:52:09.690Z,5.00
2023-12-04T05:54:37.201Z,4.90
2023-12-04T05:57:04.174Z,5.10
2023-12-04T05:59:30.767Z,5.13
2023-12-04T06:01:57.581Z,5.13
2023-12-04T06:04:24.240Z,4.87
2023-12-04T06:06:50.953Z,4.68
2023-12-04T06:09:17.849Z,4.95
2023-12-04T06:11:47.464Z,4.60
2023-12-04T06:14:14.476Z,5.93
2023-12-04T06:16:41.119Z,4.67
2023-12-04T06:19:07.951Z,4.78
2023-12-04T06:21:34.695Z,4.93
2023-12-04T06:24:04.822Z,4.65
2023-12-04T06:26:34.010Z,4.97
2023-12-04T06:29:01.071Z,4.47
2023-12-04T06:31:28.379Z,4.55
2023-12-04T06:33:55.706Z,4.28
2023-12-04T06:36:22.976Z,4.47
2023-12-04T06:38:53.216Z,4.70
2023-12-04T06:41:22.525Z,4.40
2023-12-04T06:43:52.486Z,4.47
2023-12-04T06:46:21.948Z,4.20
2023-12-04T06:48:49.753Z,4.28
2023-12-04T06:51:16.580Z,4.35
2023-12-04T06:53:43.213Z,4.13
2023-12-04T06:56:10.504Z,4.10
2023-12-04T06:58:37.147Z,4.00
2023-12-04T07:01:05.261Z,3.72
2023-12-04T07:03:32.289Z,4.13
2023-12-04T07:05:59.062Z,4.43
2023-12-04T07:08:26.194Z,4.25
2023-12-04T07:10:53.224Z,4.18
2023-12-04T07:13:20.381Z,4.35
2023-12-04T07:15:47.310Z,4.22
2023-12-04T07:18:14.088Z,4.07
2023-12-04T07:20:40.694Z,4.03
2023-12-04T07:23:07.326Z,4.30
2023-12-04T07:25:34.000Z,4.03
2023-12-04T07:28:00.848Z,3.92
2023-12-04T07:30:28.264Z,3.73
2023-12-04T07:32:55.055Z,3.90
2023-12-04T07:35:22.576Z,4.03
2023-12-04T07:37:49.931Z,3.90
2023-12-04T07:40:16.832Z,4.03
2023-12-04T07:42:44.002Z,3.80
2023-12-04T07:45:11.644Z,4.05
2023-12-04T07:47:38.421Z,4.30
2023-12-04T07:50:05.517Z,3.78
2023-12-04T07:52:32.282Z,3.90
2023-12-04T07:54:59.462Z,3.87
2023-12-04T07:57:26.112Z,3.65
2023-12-04T07:59:52.801Z,3.80
2023-12-04T08:02:19.540Z,3.90
2023-12-04T08:04:46.116Z,3.50
2023-12-04T08:07:12.965Z,3.50
2023-12-04T08:09:40.420Z,3.60
2023-12-04T08:12:07.412Z,3.83
2023-12-04T08:14:34.627Z,3.50
2023-12-04T08:17:01.437Z,3.38
2023-12-04T08:19:28.279Z,3.30
2023-12-04T08:21:55.002Z,3.60
2023-12-04T08:24:22.529Z,3.60
2023-12-04T08:26:51.744Z,3.47
2023-12-04T08:29:18.719Z,3.55
2023-12-04T08:31:45.463Z,3.47
2023-12-04T08:34:12.257Z,3.70
2023-12-04T08:36:45.317Z,3.55
2023-12-04T08:39:14.188Z,3.33
2023-12-04T08:41:47.657Z,3.17
2023-12-04T08:44:18.362Z,3.17
2023-12-04T08:46:45.834Z,3.13
2023-12-04T08:49:12.809Z,3.20
2023-12-04T08:51:39.558Z,3.60
2023-12-04T08:56:38.018Z,3.27
2023-12-04T08:59:04.850Z,3.25
2023-12-04T09:01:31.756Z,3.33
2023-12-04T09:03:59.868Z,3.47
2023-12-04T09:08:24.717Z,3.50
2023-12-04T09:09:14.528Z,3.30
2023-12-04T09:11:43.424Z,3.08
2023-12-04T09:14:10.966Z,3.58
2023-12-04T09:16:38.667Z,3.28
2023-12-04T09:19:05.764Z,3.40
2023-12-04T09:21:32.836Z,3.47
2023-12-04T09:23:59.672Z,3.28
2023-12-04T09:26:26.365Z,3.00
2023-12-04T09:28:53.386Z,2.92
2023-12-04T09:31:20.941Z,3.08
2023-12-04T09:33:50.979Z,3.13
2023-12-04T09:36:17.790Z,3.10
2023-12-04T09:38:44.872Z,3.03
2023-12-04T09:41:13.280Z,3.20
2023-12-04T09:43:40.416Z,3.05
2023-12-04T09:46:08.447Z,3.10
2023-12-04T09:48:35.887Z,2.70
2023-12-04T09:51:03.462Z,2.90
2023-12-04T09:53:31.352Z,3.08
2023-12-04T09:56:03.743Z,3.20
2023-12-04T09:58:33.338Z,3.00
2023-12-04T10:01:02.056Z,2.97
2023-12-04T10:03:30.962Z,2.85
2023-12-04T10:05:58.485Z,2.90
2023-12-04T10:08:25.251Z,2.70
2023-12-04T10:10:52.078Z,3.17
2023-12-04T10:13:55.225Z,2.72
2023-12-04T10:16:05.748Z,2.67
2023-12-04T10:18:33.075Z,2.92
2023-12-04T10:21:01.172Z,2.78
2023-12-04T10:23:43.851Z,3.10
2023-12-04T10:26:10.779Z,3.10
2023-12-04T10:28:37.522Z,2.97
2023-12-04T10:31:08.037Z,3.13
2023-12-04T10:33:34.867Z,3.03
2023-12-04T10:36:01.772Z,2.90
2023-12-04T10:38:28.686Z,3.00
2023-12-04T10:40:55.419Z,3.08
2023-12-04T10:43:25.946Z,2.55
2023-12-04T10:45:52.585Z,2.90
2023-12-04T10:48:20.980Z,3.27
2023-12-04T10:50:50.322Z,2.70
2023-12-04T10:53:18.134Z,3.08
2023-12-04T10:55:46.037Z,3.13
2023-12-04T10:58:15.950Z,2.67
2023-12-04T11:00:49.991Z,2.50
2023-12-04T11:03:24.387Z,3.00
2023-12-04T11:05:56.877Z,3.00
2023-12-04T11:08:24.405Z,3.10
2023-12-04T11:11:13.997Z,3.00
2023-12-04T11:13:49.582Z,2.80
2023-12-04T11:16:24.113Z,2.90
2023-12-04T11:19:04.306Z,2.80
2023-12-04T11:21:33.600Z,2.92
2023-12-04T11:24:01.686Z,3.00
2023-12-04T11:26:29.397Z,2.40
2023-12-04T11:28:56.863Z,2.83
2023-12-04T11:31:24.234Z,3.13
2023-12-04T11:33:51.119Z,3.00
2023-12-04T11:36:18.390Z,2.72
2023-12-04T11:38:50.423Z,2.73
2023-12-04T11:41:24.775Z,2.67
2023-12-04T11:43:56.519Z,2.67
2023-12-04T11:46:26.158Z,2.67
2023-12-04T11:48:57.741Z,2.70
2023-12-04T11:51:39.853Z,2.63
2023-12-04T11:54:16.715Z,2.88
2023-12-04T11:57:10.125Z,2.60
2023-12-04T11:59:40.117Z,2.50
2023-12-04T12:02:12.317Z,2.78
2023-12-04T12:04:39.571Z,2.53
2023-12-04T12:07:07.274Z,2.60
2023-12-04T12:09:35.055Z,2.63
2023-12-04T12:12:03.626Z,2.30
2023-12-04T12:14:31.165Z,2.63
2023-12-04T12:17:01.117Z,2.60
2023-12-04T12:19:28.727Z,2.90
2023-12-04T12:21:56.065Z,2.70
2023-12-04T12:24:24.964Z,2.40
2023-12-04T12:26:51.806Z,2.40
2023-12-04T12:29:18.868Z,2.40
2023-12-04T12:31:48.372Z,2.63
2023-12-04T12:34:15.413Z,2.80
2023-12-04T12:36:42.662Z,2.75
2023-12-04T12:39:10.157Z,2.50
2023-12-04T12:41:37.154Z,2.50
2023-12-04T12:44:04.763Z,2.90
2023-12-04T12:46:31.548Z,2.40
2023-12-04T12:48:59.590Z,2.60
2023-12-04T12:51:27.489Z,2.58
2023-12-04T12:53:55.260Z,2.53
2023-12-04T12:56:22.903Z,2.60
2023-12-04T12:58:50.442Z,2.50
2023-12-04T13:01:17.282Z,2.47
2023-12-04T13:03:48.555Z,2.42
2023-12-04T13:06:15.592Z,2.70
2023-12-04T13:08:42.415Z,2.40
2023-12-04T13:11:09.868Z,2.38
2023-12-04T13:13:36.757Z,2.22
2023-12-04T13:16:03.640Z,2.22
2023-12-04T13:18:35.388Z,2.60
2023-12-04T13:21:03.029Z,2.22
2023-12-04T13:23:29.787Z,2.15
2023-12-04T13:25:56.614Z,2.08
2023-12-04T13:28:28.194Z,2.38
2023-12-04T13:31:02.487Z,2.17
2023-12-04T13:33:29.172Z,2.60
2023-12-04T13:35:55.914Z,2.15
2023-12-04T13:38:26.426Z,2.20
2023-12-04T13:41:01.290Z,2.35
2023-12-04T13:43:47.012Z,2.10
2023-12-04T13:46:13.926Z,2.30
2023-12-04T13:48:42.189Z,2.50
2023-12-04T13:51:13.864Z,2.40
2023-12-04T13:53:50.456Z,2.40
2023-12-04T13:56:26.700Z,2.20
2023-12-04T13:58:59.851Z,2.13
2023-12-04T14:01:30.391Z,2.33
2023-12-04T14:04:04.027Z,2.15
2023-12-04T14:06:31.267Z,2.30
2023-12-04T14:08:59.721Z,2.10
2023-12-04T14:11:26.538Z,2.45
2023-12-04T14:13:53.250Z,2.05
2023-12-04T14:16:20.016Z,2.38
2023-12-04T14:18:46.878Z,2.40
2023-12-04T14:21:13.648Z,2.27
2023-12-04T14:23:40.523Z,2.17
2023-12-04T14:26:07.446Z,2.40
2023-12-04T14:28:42.378Z,2.20
2023-12-04T14:31:14.416Z,2.20
2023-12-04T14:33:43.343Z,2.27
2023-12-04T14:36:15.476Z,2.40
2023-12-04T14:38:42.270Z,2.00
2023-12-04T14:41:10.688Z,2.10
2023-12-04T14:43:39.983Z,2.20
2023-12-04T14:46:09.593Z,2.20
2023-12-04T14:48:40.106Z,2.45
2023-12-04T14:51:07.921Z,2.40
2023-12-04T14:53:46.851Z,2.28
2023-12-04T14:56:35.978Z,2.28
2023-12-04T14:59:06.320Z,2.20
2023-12-04T15:01:52.257Z,1.88
2023-12-04T15:04:37.425Z,2.30
2023-12-04T15:07:24.425Z,2.20
2023-12-04T15:10:06.502Z,2.30
2023-12-04T15:12:36.346Z,2.10
2023-12-04T15:15:41.807Z,2.60
2023-12-04T15:18:27.856Z,2.10
2023-12-04T15:20:55.309Z,2.10
2023-12-04T15:23:22.022Z,2.10
2023-12-04T15:25:48.964Z,2.20
2023-12-04T15:28:16.006Z,2.20
2023-12-04T15:30:43.210Z,2.05
2023-12-04T15:33:10.136Z,2.25
2023-12-04T15:35:38.631Z,2.10
2023-12-04T15:38:05.750Z,2.20
2023-12-04T15:40:32.696Z,2.40
2023-12-04T15:42:59.600Z,2.13
2023-12-04T15:45:27.142Z,2.78
2023-12-04T15:47:54.148Z,2.88
2023-12-04T15:50:23.837Z,5.70
2023-12-04T15:52:50.826Z,6.28
2023-12-04T15:55:17.596Z,7.03
2023-12-04T15:57:44.326Z,7.40
2023-12-04T16:00:14.386Z,6.45
2023-12-04T16:02:41.680Z,6.57
2023-12-04T16:05:12.477Z,5.85
2023-12-04T16:07:39.949Z,5.30
2023-12-04T16:10:10.148Z,5.20
2023-12-04T16:12:37.736Z,5.07
2023-12-04T16:15:11.298Z,4.37
2023-12-04T16:17:41.231Z,4.10
2023-12-04T16:20:11.587Z,4.10
2023-12-04T16:22:44.130Z,4.47
2023-12-04T16:25:12.733Z,4.10
2023-12-04T16:27:40.015Z,3.90
2023-12-04T16:30:07.952Z,3.53
2023-12-04T16:32:35.581Z,3.35
2023-12-04T16:35:02.792Z,3.58
2023-12-04T16:37:30.038Z,3.65
2023-12-04T16:39:56.909Z,3.20
2023-12-04T16:42:23.664Z,2.90
2023-12-04T16:44:50.414Z,3.20
2023-12-04T16:47:17.124Z,3.60
2023-12-04T16:49:44.789Z,3.42
2023-12-04T16:52:16.253Z,3.40
2023-12-04T16:54:43.477Z,3.35
2023-12-04T16:57:11.597Z,3.13
2023-12-04T16:59:38.843Z,3.10
2023-12-04T17:02:06.947Z,3.13
2023-12-04T17:04:34.265Z,3.07
2023-12-04T17:07:01.887Z,3.20
2023-12-04T17:09:28.731Z,2.88
2023-12-04T17:11:56.099Z,2.92
2023-12-04T17:14:23.044Z,2.70
2023-12-04T17:16:50.171Z,3.10
2023-12-04T17:19:17.137Z,3.17
2023-12-04T17:21:44.028Z,3.20
2023-12-04T17:24:11.189Z,2.78
2023-12-04T17:26:38.346Z,2.83
2023-12-04T17:29:05.030Z,3.20
2023-12-04T17:31:32.646Z,2.80
2023-12-04T17:33:59.563Z,2.78
2023-12-04T17:36:26.452Z,3.15
2023-12-04T17:38:53.614Z,2.60
2023-12-04T17:41:20.589Z,2.63
2023-12-04T17:43:47.324Z,2.60
2023-12-04T17:46:14.362Z,3.05
2023-12-04T17:48:42.345Z,3.10
2023-12-04T17:51:15.983Z,2.88
2023-12-04T17:53:43.357Z,2.70
2023-12-04T17:56:11.176Z,2.83
2023-12-04T17:58:37.836Z,2.90
2023-12-04T18:01:04.795Z,2.70
2023-12-04T18:03:31.725Z,2.70
2023-12-04T18:05:58.753Z,2.80
2023-12-04T18:08:29.040Z,2.55
2023-12-04T18:10:56.325Z,2.72
2023-12-04T18:13:23.590Z,2.60
2023-12-04T18:15:50.530Z,2.60
2023-12-04T18:18:18.942Z,2.50
2023-12-04T18:20:48.903Z,2.60
2023-12-04T18:23:15.574Z,2.70
2023-12-04T18:25:42.602Z,2.70
2023-12-04T18:28:11.569Z,2.70
2023-12-04T18:30:39.058Z,2.80
2023-12-04T18:33:07.419Z,2.78
2023-12-04T18:35:34.781Z,2.90
2023-12-04T18:38:12.084Z,2.58
2023-12-04T18:40:39.234Z,3.03
2023-12-04T18:43:07.003Z,3.00
2023-12-04T18:45:35.409Z,3.20
2023-12-04T18:48:06.629Z,3.30
2023-12-04T18:50:34.190Z,3.55
2023-12-04T18:53:02.045Z,3.47
2023-12-04T18:55:29.424Z,3.63
2023-12-04T18:57:56.177Z,3.38
2023-12-04T19:00:25.756Z,3.30
2023-12-04T19:02:53.825Z,3.65
2023-12-04T19:05:21.658Z,4.50
2023-12-04T19:07:48.455Z,6.03
2023-12-04T19:10:15.456Z,6.78
2023-12-04T19:12:42.210Z,6.82
2023-12-04T19:15:11.030Z,6.95
2023-12-04T19:17:38.114Z,7.45
2023-12-04T19:20:07.326Z,7.90
2023-12-04T19:22:34.067Z,8.30
2023-12-04T19:25:00.717Z,8.73
2023-12-04T19:27:28.174Z,8.57
2023-12-04T19:29:55.471Z,9.27
2023-12-04T19:32:23.035Z,8.87
2023-12-04T19:34:50.251Z,8.82
2023-12-04T19:37:16.916Z,8.90
2023-12-04T19:39:44.971Z,10.80
2023-12-04T19:42:12.762Z,9.88
2023-12-04T19:44:43.987Z,9.63
2023-12-04T19:47:10.748Z,10.07
2023-12-04T19:49:45.580Z,10.60
2023-12-04T19:52:12.348Z,10.98
2023-12-04T19:54:43.136Z,11.90
2023-12-04T19:57:09.891Z,11.83
2023-12-04T19:59:38.540Z,11.90
2023-12-04T20:02:05.995Z,12.73
2023-12-04T20:04:33.325Z,12.93
2023-12-04T20:07:00.440Z,14.15
2023-12-04T20:09:27.493Z,12.97
2023-12-04T20:11:55.745Z,13.25
2023-12-04T20:14:23.800Z,14.07
2023-12-04T20:16:53.252Z,12.93
2023-12-04T20:19:20.538Z,14.35
2023-12-04T20:21:47.532Z,13.93
2023-12-04T20:24:16.709Z,15.90
2023-12-04T20:26:43.843Z,19.80
2023-12-04T20:29:10.573Z,23.65
2023-12-04T20:31:37.486Z,27.90
2023-12-04T20:34:04.812Z,29.53
2023-12-04T20:36:31.584Z,31.58
2023-12-04T20:38:58.422Z,34.83
2023-12-04T20:41:25.148Z,38.22
2023-12-04T20:43:54.026Z,41.78
2023-12-04T20:46:21.957Z,43.07
2023-12-04T20:48:48.894Z,43.80
2023-12-04T20:51:15.949Z,43.50
2023-12-04T20:53:42.948Z,42.83
2023-12-04T20:56:10.157Z,42.40
2023-12-04T20:58:36.779Z,41.97
2023-12-04T21:01:04.224Z,41.90
2023-12-04T21:03:31.482Z,42.45
2023-12-04T21:05:58.671Z,40.45
2023-12-04T21:08:26.283Z,40.58
2023-12-04T21:10:53.266Z,40.00
2023-12-04T21:13:19.951Z,40.78
2023-12-04T21:15:48.069Z,41.65
2023-12-04T21:18:16.338Z,40.08
2023-12-04T21:20:45.718Z,41.25
2023-12-04T21:23:12.492Z,41.07
2023-12-04T21:25:39.552Z,39.85
2023-12-04T21:28:07.404Z,39.80
2023-12-04T21:30:34.877Z,36.90
2023-12-04T21:33:02.002Z,37.58
2023-12-04T21:35:29.887Z,35.73
2023-12-04T21:37:56.671Z,36.53
2023-12-04T21:40:24.218Z,36.45
2023-12-04T21:42:50.951Z,35.75
2023-12-04T21:45:19.828Z,36.47
2023-12-04T21:47:48.016Z,35.70
2023-12-04T21:50:14.819Z,35.88
2023-12-04T21:52:41.548Z,33.65
2023-12-04T21:55:09.403Z,32.90
2023-12-04T21:57:37.270Z,33.67
2023-12-04T22:00:22.471Z,32.60
2023-12-04T22:02:49.311Z,32.40
2023-12-04T22:05:16.159Z,33.53
2023-12-04T22:07:42.879Z,33.05
2023-12-04T22:10:10.051Z,32.00
2023-12-04T22:12:36.734Z,32.77
2023-12-04T22:15:04.956Z,31.80
2023-12-04T22:17:31.871Z,31.65
2023-12-04T22:19:59.159Z,31.73
2023-12-04T22:22:26.520Z,30.27
2023-12-04T22:24:54.020Z,30.70
2023-12-04T22:27:21.670Z,30.50
2023-12-04T22:29:48.711Z,29.65
2023-12-04T22:32:15.437Z,29.30
2023-12-04T22:34:42.348Z,28.73
2023-12-04T22:37:09.132Z,28.20
2023-12-04T22:39:35.827Z,27.90
2023-12-04T22:42:02.611Z,25.67
2023-12-04T22:44:31.372Z,24.65
2023-12-04T22:46:58.336Z,23.27
2023-12-04T22:49:25.168Z,22.77
2023-12-04T22:51:52.316Z,22.17
2023-12-04T22:54:19.263Z,22.42
2023-12-04T22:56:46.003Z,20.02
2023-12-04T22:59:12.978Z,20.50
2023-12-04T23:01:39.701Z,20.07
2023-12-04T23:04:06.803Z,20.10
2023-12-04T23:06:33.686Z,20.00
2023-12-04T23:09:00.582Z,19.48
2023-12-04T23:11:27.273Z,19.65
2023-12-04T23:13:54.116Z,18.70
2023-12-04T23:16:23.463Z,18.30
2023-12-04T23:18:51.221Z,18.30
2023-12-04T23:21:18.340Z,17.23
2023-12-04T23:23:45.247Z,17.23
2023-12-04T23:26:11.875Z,16.73
2023-12-04T23:28:39.879Z,17.77
2023-12-04T23:31:07.124Z,17.05
2023-12-04T23:33:33.956Z,17.17
2023-12-04T23:36:00.693Z,17.58
2023-12-04T23:38:27.363Z,17.13
2023-12-04T23:40:54.172Z,17.55
2023-12-04T23:43:21.226Z,16.30
2023-12-04T23:45:53.414Z,16.30
2023-12-04T23:48:24.955Z,16.63
2023-12-04T23:50:52.455Z,15.33
2023-12-04T23:53:19.522Z,15.63
2023-12-04T23:55:46.196Z,16.13
2023-12-04T23:58:13.017Z,16.50
